Time;durP1;ratioP1;P1;durP2;ratioP2;P2;SDS_P1;SDS_P2;PMS_P1;PMS_P2;Temp;Humidity;BMP_temperature;BMP_pressure;BME280_temperature;BME280_humidity;BME280_pressure;Samples;Min_cycle;Max_cycle;Signal;HPM_P1;HPM_P2
2021/01/24 00:01:46;;;;;;;24.55;8.93;;;;;;;1.71;84.47;97028.13;2287410;76;21697;-65
2021/01/24 00:04:47;;;;;;;23.05;7.67;;;;;;;1.70;84.98;97019.17;2311829;76;21127;-63
2021/01/24 00:07:48;;;;;;;24.30;7.97;;;;;;;1.63;85.03;97021.71;2311615;76;21673;-64
2021/01/24 00:10:49;;;;;;;29.70;9.08;;;;;;;1.59;85.36;97019.73;2317342;76;21274;-64
2021/01/24 00:13:51;;;;;;;23.45;8.40;;;;;;;1.58;85.27;97007.75;2310523;76;21261;-64
2021/01/24 00:16:52;;;;;;;24.50;8.43;;;;;;;1.56;85.45;97001.34;2299228;76;21740;-63
2021/01/24 00:19:53;;;;;;;24.45;8.35;;;;;;;1.52;85.57;97006.77;2311520;76;21120;-63
2021/01/24 00:22:54;;;;;;;24.67;8.75;;;;;;;1.45;85.59;97006.28;2320468;76;21293;-63
2021/01/24 00:25:55;;;;;;;25.55;8.58;;;;;;;1.40;85.88;97002.27;2313757;76;21777;-63
2021/01/24 00:28:56;;;;;;;24.60;8.40;;;;;;;1.39;85.64;96992.38;2311423;76;21139;-63
2021/01/24 00:31:58;;;;;;;25.35;7.90;;;;;;;1.42;85.68;96977.17;2306947;76;21305;-63
2021/01/24 00:34:59;;;;;;;24.18;8.30;;;;;;;1.45;85.52;96967.52;2327577;76;21131;-64
2021/01/24 00:38:00;;;;;;;26.52;8.75;;;;;;;1.55;85.69;96966.55;2312232;76;22104;-63
2021/01/24 00:41:04;;;;;;;26.30;9.25;;;;;;;1.60;85.35;96963.27;2286496;77;21292;-63
2021/01/24 00:44:04;;;;;;;24.92;8.85;;;;;;;1.61;85.38;96966.67;2251550;77;21244;-63
2021/01/24 00:47:05;;;;;;;24.10;8.93;;;;;;;1.66;85.32;96962.92;2250771;77;21705;-63
2021/01/24 00:50:06;;;;;;;24.37;8.33;;;;;;;1.65;85.19;96962.56;2266667;77;21273;-64
2021/01/24 00:53:08;;;;;;;24.65;8.40;;;;;;;1.64;85.12;96939.36;2265280;77;21729;-64
2021/01/24 00:56:09;;;;;;;25.05;8.25;;;;;;;1.53;85.25;96927.05;2252003;78;21256;-64
2021/01/24 00:59:10;;;;;;;21.80;7.92;;;;;;;1.52;85.41;96942.16;2310739;76;21310;-63
2021/01/24 01:02:11;;;;;;;22.98;7.58;;;;;;;1.50;85.30;96928.04;2280314;78;21288;-64
2021/01/24 01:05:13;;;;;;;23.02;8.48;;;;;;;1.53;85.19;96929.16;2275765;78;21284;-63
2021/01/24 01:08:14;;;;;;;23.10;7.67;;;;;;;1.56;85.09;96926.88;2274134;77;21183;-63
2021/01/24 01:11:15;;;;;;;23.57;8.23;;;;;;;1.50;84.84;96925.45;2258952;77;21745;-63
2021/01/24 01:14:16;;;;;;;22.58;7.58;;;;;;;1.41;84.88;96922.09;2267689;78;21274;-63
2021/01/24 01:17:17;;;;;;;22.67;8.13;;;;;;;1.29;85.59;96931.31;2280483;77;21281;-63
2021/01/24 01:20:19;;;;;;;23.02;7.67;;;;;;;1.20;85.51;96923.61;2279553;77;21539;-64
2021/01/24 01:23:20;;;;;;;26.40;8.35;;;;;;;1.15;86.20;96920.45;2272916;78;21289;-63
2021/01/24 01:26:21;;;;;;;24.25;8.05;;;;;;;1.08;86.72;96911.80;2309256;76;21688;-64
2021/01/24 01:29:22;;;;;;;24.23;8.55;;;;;;;1.03;86.51;96907.75;2256576;78;21287;-63
2021/01/24 01:32:25;;;;;;;23.32;8.68;;;;;;;0.98;86.49;96911.02;2267717;77;21273;-64
2021/01/24 01:35:26;;;;;;;25.37;9.25;;;;;;;0.93;86.94;96902.67;2261095;78;21269;-65
2021/01/24 01:38:27;;;;;;;23.92;8.28;;;;;;;0.88;86.68;96907.26;2287218;76;21259;-64
2021/01/24 01:41:28;;;;;;;24.23;8.10;;;;;;;0.87;86.72;96908.16;2271549;77;21574;-65
2021/01/24 01:44:29;;;;;;;26.77;9.90;;;;;;;0.83;86.81;96892.02;2282654;77;21301;-64
2021/01/24 01:47:31;;;;;;;24.45;8.90;;;;;;;0.84;86.52;96898.83;2271359;77;21285;-63
2021/01/24 01:50:32;;;;;;;25.97;10.05;;;;;;;0.85;86.61;96898.39;2250691;77;21287;-64
2021/01/24 01:53:33;;;;;;;24.72;9.53;;;;;;;0.82;86.33;96905.83;2255437;77;21314;-67
2021/01/24 01:56:34;;;;;;;25.17;10.03;;;;;;;0.83;86.21;96895.89;2269407;78;21265;-64
2021/01/24 01:59:36;;;;;;;26.40;10.25;;;;;;;0.85;86.18;96896.63;2291317;76;21716;-63
2021/01/24 02:02:37;;;;;;;27.45;9.50;;;;;;;0.83;86.14;96893.75;2284976;77;21681;-64
2021/01/24 02:05:38;;;;;;;25.82;9.60;;;;;;;0.82;86.09;96881.31;2285338;78;21305;-67
2021/01/24 02:08:40;;;;;;;28.15;9.60;;;;;;;0.83;86.14;96884.71;2280199;77;21296;-64
2021/01/24 02:11:42;;;;;;;23.55;8.93;;;;;;;0.83;86.08;96882.13;2276662;77;21840;-64
2021/01/24 02:14:43;;;;;;;26.45;9.90;;;;;;;0.81;86.08;96887.38;2262483;77;21268;-64
2021/01/24 02:17:45;;;;;;;25.77;9.48;;;;;;;0.82;85.88;96888.20;2265961;77;21747;-63
2021/01/24 02:20:46;;;;;;;26.30;10.32;;;;;;;0.82;86.08;96904.54;2274377;77;21709;-63
2021/01/24 02:23:47;;;;;;;25.77;10.13;;;;;;;0.81;85.90;96900.28;2262584;77;21276;-63
2021/01/24 02:26:49;;;;;;;26.37;9.85;;;;;;;0.80;85.88;96897.78;2273684;77;21272;-63
2021/01/24 02:29:50;;;;;;;28.35;9.40;;;;;;;0.79;85.82;96899.98;2246074;78;21299;-63
2021/01/24 02:32:51;;;;;;;27.22;11.33;;;;;;;0.76;85.75;96898.41;2274413;77;21261;-63
2021/01/24 02:35:52;;;;;;;27.30;10.80;;;;;;;0.76;86.02;96887.23;2316418;77;21594;-65
2021/01/24 02:38:53;;;;;;;41.68;19.77;;;;;;;0.75;86.10;96881.69;2276297;77;21719;-63
2021/01/24 02:41:54;;;;;;;28.30;11.25;;;;;;;0.73;86.06;96882.24;2262182;77;21309;-63
2021/01/24 02:44:55;;;;;;;31.57;12.95;;;;;;;0.68;86.21;96887.65;2282059;77;21249;-63
2021/01/24 02:47:57;;;;;;;30.37;12.40;;;;;;;0.68;86.15;96892.34;2315932;76;21722;-63
2021/01/24 02:50:58;;;;;;;31.25;12.30;;;;;;;0.75;86.26;96894.59;2266691;77;21284;-64
2021/01/24 02:53:59;;;;;;;27.37;10.50;;;;;;;0.80;86.14;96902.95;2251966;78;21292;-64
2021/01/24 02:57:00;;;;;;;28.15;11.78;;;;;;;0.90;85.93;96921.37;2270227;77;21296;-64
2021/01/24 03:00:01;;;;;;;29.50;11.45;;;;;;;0.94;85.95;96926.75;2274385;77;21264;-63
2021/01/24 03:03:03;;;;;;;29.27;12.15;;;;;;;0.90;86.01;96932.98;2271117;77;21264;-64
2021/01/24 03:06:04;;;;;;;30.52;13.48;;;;;;;0.81;86.06;96927.85;2281189;77;21705;-63
2021/01/24 03:09:05;;;;;;;31.07;13.53;;;;;;;0.75;86.16;96922.98;2251250;77;21269;-66
2021/01/24 03:12:06;;;;;;;28.65;11.88;;;;;;;0.76;86.14;96928.53;2260635;77;21252;-63
2021/01/24 03:15:07;;;;;;;29.60;11.70;;;;;;;0.81;86.36;96920.93;2255913;77;21728;-63
2021/01/24 03:18:08;;;;;;;31.10;12.25;;;;;;;0.90;86.21;96927.36;2287308;78;21258;-63
2021/01/24 03:21:09;;;;;;;29.60;12.88;;;;;;;0.94;86.29;96927.58;2308777;76;21277;-64
2021/01/24 03:24:10;;;;;;;29.10;12.25;;;;;;;1.12;86.41;96910.73;2286061;78;21265;-63
2021/01/24 03:27:12;;;;;;;28.10;12.03;;;;;;;1.18;85.74;96887.19;2279472;77;21360;-65
2021/01/24 03:30:13;;;;;;;31.47;12.77;;;;;;;1.03;85.71;96892.69;2282403;77;21135;-63
2021/01/24 03:33:14;;;;;;;31.10;12.98;;;;;;;0.92;85.79;96893.28;2312522;76;21272;-64
2021/01/24 03:36:15;;;;;;;30.90;13.28;;;;;;;0.97;86.06;96882.70;2281677;77;21253;-64
2021/01/24 03:39:16;;;;;;;29.82;12.73;;;;;;;1.03;86.09;96875.47;2284053;77;21279;-63
2021/01/24 03:42:17;;;;;;;29.48;12.73;;;;;;;1.03;85.82;96858.69;2263804;77;21268;-63
2021/01/24 03:45:19;;;;;;;30.27;12.90;;;;;;;0.96;85.86;96856.06;2283352;77;21696;-62
2021/01/24 03:48:20;;;;;;;29.82;13.60;;;;;;;0.93;85.92;96857.48;2281729;77;21309;-63
2021/01/24 03:51:21;;;;;;;30.80;14.07;;;;;;;0.96;86.11;96862.95;2269229;77;21292;-63
2021/01/24 03:54:22;;;;;;;27.55;11.20;;;;;;;1.00;86.00;96854.95;2275750;78;21291;-63
2021/01/24 03:57:23;;;;;;;27.25;10.72;;;;;;;1.01;85.91;96855.81;2266915;77;21273;-63
2021/01/24 04:00:25;;;;;;;27.52;10.25;;;;;;;0.99;85.87;96844.71;2257420;77;21261;-63
2021/01/24 04:03:26;;;;;;;27.87;10.98;;;;;;;1.00;85.95;96849.79;2250962;77;21696;-63
2021/01/24 04:06:27;;;;;;;28.10;10.85;;;;;;;1.02;85.93;96847.13;2275639;77;21815;-63
2021/01/24 04:09:28;;;;;;;27.87;10.88;;;;;;;1.07;86.30;96842.55;2273813;77;21260;-65
2021/01/24 04:12:29;;;;;;;29.32;12.07;;;;;;;1.19;86.13;96844.48;2261912;77;21348;-63
2021/01/24 04:15:31;;;;;;;27.13;11.35;;;;;;;1.18;85.81;96848.44;2266086;77;21701;-63
2021/01/24 04:18:32;;;;;;;27.48;11.10;;;;;;;1.16;85.95;96841.22;2279868;78;21281;-63
2021/01/24 04:21:33;;;;;;;26.10;9.65;;;;;;;1.20;85.86;96830.63;2314937;76;21253;-63
2021/01/24 04:24:34;;;;;;;24.92;10.23;;;;;;;1.21;85.82;96826.31;2313709;76;21277;-63
2021/01/24 04:27:35;;;;;;;25.55;10.35;;;;;;;1.25;85.91;96826.53;2253848;78;21704;-64
2021/01/24 04:30:36;;;;;;;25.77;10.25;;;;;;;1.28;85.70;96825.06;2284465;77;21289;-63
2021/01/24 04:33:37;;;;;;;26.73;10.70;;;;;;;1.27;85.57;96823.86;2258001;77;21760;-64
2021/01/24 04:36:39;;;;;;;27.13;10.68;;;;;;;1.24;85.61;96824.85;2271095;77;21268;-63
2021/01/24 04:39:40;;;;;;;25.52;9.50;;;;;;;1.23;85.65;96819.30;2287981;77;21268;-63
2021/01/24 04:42:41;;;;;;;24.12;8.70;;;;;;;1.26;85.57;96819.12;2252716;77;21293;-63
2021/01/24 04:45:42;;;;;;;25.85;9.08;;;;;;;1.25;85.57;96808.45;2260172;77;21691;-63
2021/01/24 04:48:43;;;;;;;25.40;9.60;;;;;;;1.26;85.75;96801.05;2274545;77;21285;-63
2021/01/24 04:51:44;;;;;;;25.68;9.28;;;;;;;1.33;85.71;96798.97;2247249;78;21315;-63
2021/01/24 04:54:46;;;;;;;27.25;9.98;;;;;;;1.34;85.63;96787.25;2297574;76;21262;-63
2021/01/24 04:57:47;;;;;;;24.80;9.33;;;;;;;1.32;85.46;96781.36;2281224;77;21098;-63
2021/01/24 05:00:49;;;;;;;23.77;8.58;;;;;;;1.20;85.44;96769.12;2252675;77;21792;-64
2021/01/24 05:03:50;;;;;;;23.30;8.18;;;;;;;1.08;85.69;96762.89;2263833;77;21293;-66
2021/01/24 05:06:51;;;;;;;24.43;8.53;;;;;;;0.93;85.93;96764.55;2262865;77;21269;-63
2021/01/24 05:09:52;;;;;;;28.02;10.53;;;;;;;0.88;86.12;96765.28;2268413;78;21718;-63
2021/01/24 05:12:53;;;;;;;32.15;13.58;;;;;;;0.94;86.20;96775.27;2310114;76;21262;-63
2021/01/24 05:15:54;;;;;;;42.55;16.25;;;;;;;1.04;86.43;96769.96;2265330;77;21281;-63
2021/01/24 05:18:56;;;;;;;25.55;10.32;;;;;;;1.13;86.03;96766.03;2260045;78;21739;-64
2021/01/24 05:21:58;;;;;;;23.90;9.65;;;;;;;1.10;85.93;96759.75;2275201;77;21274;-65
2021/01/24 05:24:59;;;;;;;24.43;10.15;;;;;;;1.04;85.96;96760.92;2254334;78;21272;-65
2021/01/24 05:28:00;;;;;;;27.52;10.75;;;;;;;1.00;85.99;96759.42;2242719;77;21318;-64
2021/01/24 05:31:02;;;;;;;25.00;9.08;;;;;;;1.01;85.98;96759.81;2254571;77;21690;-66
2021/01/24 05:34:03;;;;;;;25.27;9.18;;;;;;;1.03;86.00;96755.41;2255806;78;21266;-64
2021/01/24 05:37:04;;;;;;;25.52;8.83;;;;;;;1.06;85.99;96758.73;2259059;78;21736;-65
2021/01/24 05:40:06;;;;;;;27.17;10.15;;;;;;;1.10;85.93;96758.93;2244433;78;21712;-64
2021/01/24 05:43:07;;;;;;;27.13;10.75;;;;;;;1.08;85.85;96754.30;2250792;77;21693;-63
2021/01/24 05:46:08;;;;;;;26.60;10.48;;;;;;;1.09;85.98;96751.63;2270167;77;21134;-63
2021/01/24 05:49:13;;;;;;;28.42;10.70;;;;;;;1.11;85.95;96753.68;2258772;77;21272;-63
2021/01/24 05:52:19;;;;;;;27.73;11.43;;;;;;;1.07;85.98;96750.89;2277854;77;21268;-63
2021/01/24 05:55:17;;;;;;;25.23;10.58;;;;;;;1.01;86.00;96754.64;2246084;77;21107;-63
2021/01/24 05:58:18;;;;;;;27.73;11.08;;;;;;;1.03;86.06;96757.14;2267459;77;21150;-63
2021/01/24 06:01:19;;;;;;;29.07;12.70;;;;;;;1.09;86.11;96754.68;2259590;78;21264;-65
2021/01/24 06:04:21;;;;;;;28.77;13.25;;;;;;;1.14;86.04;96752.69;2250645;77;21799;-64
2021/01/24 06:07:22;;;;;;;28.92;12.93;;;;;;;1.17;85.93;96752.04;2264659;77;21280;-63
2021/01/24 06:10:23;;;;;;;32.15;14.68;;;;;;;1.17;86.07;96735.72;2256617;78;21738;-63
2021/01/24 06:13:24;;;;;;;38.58;17.25;;;;;;;1.10;86.29;96730.53;2254618;77;21280;-63
2021/01/24 06:16:25;;;;;;;30.82;12.15;;;;;;;1.00;86.85;96729.73;2269129;77;21268;-63
2021/01/24 06:19:26;;;;;;;29.60;12.47;;;;;;;0.91;86.76;96726.39;2256292;78;21723;-64
2021/01/24 06:22:27;;;;;;;31.42;13.78;;;;;;;0.85;87.24;96731.44;2261034;77;21700;-64
2021/01/24 06:25:28;;;;;;;30.27;13.03;;;;;;;0.82;87.23;96723.86;2264859;77;21277;-64
2021/01/24 06:28:30;;;;;;;33.73;14.35;;;;;;;0.79;87.40;96712.42;2268218;78;21277;-64
2021/01/24 06:31:31;;;;;;;34.13;13.05;;;;;;;0.79;87.55;96714.16;2277939;78;21286;-65
2021/01/24 06:34:32;;;;;;;40.30;17.35;;;;;;;0.78;87.60;96715.91;2273390;77;21581;-64
2021/01/24 06:37:33;;;;;;;34.23;15.68;;;;;;;0.78;87.66;96713.80;2269161;77;21567;-64
2021/01/24 06:40:34;;;;;;;31.30;13.85;;;;;;;0.76;87.79;96715.17;2253407;78;21272;-63
2021/01/24 06:43:37;;;;;;;30.62;13.38;;;;;;;0.80;87.90;96719.23;2267683;78;21249;-63
2021/01/24 06:46:38;;;;;;;32.05;13.18;;;;;;;0.86;87.45;96729.67;2274052;78;21289;-63
2021/01/24 06:49:39;;;;;;;28.83;12.60;;;;;;;0.96;87.42;96721.81;2264557;77;21288;-65
2021/01/24 06:56:09;;;;;;;33.38;13.88;;;;;;;1.15;87.12;96732.38;2273752;77;23504;-63
2021/01/24 06:59:28;;;;;;;34.18;13.80;;;;;;;1.18;87.14;96745.14;2240016;78;21157;-64
2021/01/24 07:02:40;;;;;;;33.85;14.28;;;;;;;1.26;87.02;96741.64;2240110;78;21138;-64
2021/01/24 07:05:53;;;;;;;38.17;14.05;;;;;;;1.30;86.87;96740.55;2240378;78;21232;-64
2021/01/24 07:09:20;;;;;;;30.77;12.40;;;;;;;1.38;86.97;96742.72;2240457;78;21260;-65
2021/01/24 07:12:51;;;;;;;30.02;12.98;;;;;;;1.52;86.94;96738.03;2269711;78;21109;-65
2021/01/24 07:15:59;;;;;;;32.00;12.73;;;;;;;1.69;86.88;96731.41;2240563;78;21732;-63
2021/01/24 07:19:00;;;;;;;33.60;14.87;;;;;;;1.75;86.43;96734.58;2270881;78;21328;-64
2021/01/24 07:22:01;;;;;;;32.28;14.60;;;;;;;1.77;86.30;96726.25;2270903;78;21277;-66
2021/01/24 07:25:02;;;;;;;32.33;14.40;;;;;;;1.73;86.21;96721.27;2270408;78;21272;-65
2021/01/24 07:28:05;;;;;;;30.85;13.40;;;;;;;1.69;86.08;96719.78;2270538;78;21121;-64
2021/01/24 07:31:06;;;;;;;31.10;13.28;;;;;;;1.56;86.10;96716.27;2270428;78;21130;-64
2021/01/24 07:34:07;;;;;;;30.37;13.00;;;;;;;1.42;86.45;96702.84;2240340;78;21311;-64
2021/01/24 07:37:08;;;;;;;30.02;13.30;;;;;;;1.37;86.71;96698.42;2270504;78;21586;-63
2021/01/24 07:40:10;;;;;;;33.25;16.27;;;;;;;1.35;86.90;96702.39;2270514;78;21450;-65
2021/01/24 07:43:11;;;;;;;38.28;19.62;;;;;;;1.42;87.13;96692.52;2270383;78;21153;-64
2021/01/24 07:46:14;;;;;;;;;;;;;;;1.52;87.24;96689.79;2273094;78;21125;-64
2021/01/24 07:49:15;;;;;;;34.73;15.05;;;;;;;1.56;86.99;96687.84;2270522;78;20431;-65
2021/01/24 07:52:17;;;;;;;33.40;14.35;;;;;;;1.60;86.95;96691.09;2270481;78;21574;-65
2021/01/24 07:55:19;;;;;;;30.15;13.45;;;;;;;1.62;86.85;96686.17;2263351;78;21696;-64
2021/01/24 07:58:22;;;;;;;35.65;14.73;;;;;;;1.62;86.86;96684.06;2260447;79;21282;-64
2021/01/24 08:01:23;;;;;;;33.33;15.08;;;;;;;1.61;87.00;96676.78;2260094;79;21265;-64
2021/01/24 08:04:24;;;;;;;33.35;14.47;;;;;;;1.60;87.04;96680.75;2260463;79;21273;-65
2021/01/24 08:07:25;;;;;;;34.80;15.45;;;;;;;1.63;87.12;96680.09;2259218;79;21256;-64
2021/01/24 08:10:26;;;;;;;35.73;15.70;;;;;;;1.72;87.26;96674.40;2259393;79;21268;-64
2021/01/24 08:13:27;;;;;;;37.65;16.70;;;;;;;1.78;87.14;96676.23;2259447;79;21308;-64
2021/01/24 08:16:28;;;;;;;32.48;14.60;;;;;;;1.85;87.14;96681.40;2259451;79;21582;-64
2021/01/24 08:19:30;;;;;;;33.25;14.47;;;;;;;1.81;87.07;96686.38;2259547;79;21158;-63
2021/01/24 08:22:31;;;;;;;29.67;13.45;;;;;;;1.64;87.69;96704.17;2259709;79;21126;-63
2021/01/24 08:25:32;;;;;;;51.30;24.18;;;;;;;1.49;88.68;96718.83;2259756;79;21166;-64
2021/01/24 08:28:33;;;;;;;57.08;25.48;;;;;;;1.33;88.90;96725.34;2259544;79;21277;-64
2021/01/24 08:31:35;;;;;;;57.60;27.22;;;;;;;1.24;88.49;96697.48;2259262;79;21253;-64
2021/01/24 08:34:36;;;;;;;51.58;25.17;;;;;;;1.32;88.41;96685.78;2259186;79;21716;-65
2021/01/24 08:37:37;;;;;;;54.85;26.95;;;;;;;1.29;88.96;96700.61;2259161;79;21202;-65
2021/01/24 08:40:38;;;;;;;50.15;23.07;;;;;;;1.14;88.55;96700.56;2259211;79;21327;-64
2021/01/24 08:43:39;;;;;;;48.83;22.82;;;;;;;1.13;88.72;96710.98;2259222;79;21257;-65
2021/01/24 08:46:42;;;;;;;46.90;23.38;;;;;;;1.12;88.74;96717.06;2259164;79;21094;-63
2021/01/24 08:49:43;;;;;;;39.75;19.00;;;;;;;1.20;88.67;96713.12;2259325;79;21249;-64
2021/01/24 08:52:44;;;;;;;42.05;18.85;;;;;;;1.32;88.32;96696.55;2259199;79;21283;-64
2021/01/24 08:55:45;;;;;;;34.80;17.40;;;;;;;1.33;88.73;96651.26;2259219;79;21700;-66
2021/01/24 08:58:46;;;;;;;38.10;16.87;;;;;;;1.35;88.46;96664.08;2259290;79;21680;-66
2021/01/24 09:01:47;;;;;;;34.18;16.40;;;;;;;1.37;88.20;96681.63;2259444;79;21728;-63
2021/01/24 09:04:49;;;;;;;36.13;16.42;;;;;;;1.45;88.16;96683.76;2227128;79;21107;-65
2021/01/24 09:07:50;;;;;;;31.82;14.25;;;;;;;1.58;88.18;96683.88;2227207;79;21727;-65
2021/01/24 09:10:51;;;;;;;31.20;13.38;;;;;;;1.66;87.84;96688.95;2259659;79;21146;-67
2021/01/24 09:13:53;;;;;;;30.65;13.28;;;;;;;1.85;87.96;96681.40;2259624;79;21123;-64
2021/01/24 09:16:55;;;;;;;;;;;;;;;2.07;87.58;96705.05;2261908;79;21285;-65
2021/01/24 09:19:56;;;;;;;44.53;21.68;;;;;;;1.88;87.86;96724.72;2227201;79;20220;-64
2021/01/24 09:22:58;;;;;;;54.40;25.90;;;;;;;1.63;87.95;96733.08;2259167;79;21261;-64
2021/01/24 09:25:59;;;;;;;44.80;20.72;;;;;;;1.39;88.60;96732.73;2259160;79;21291;-64
2021/01/24 09:29:00;;;;;;;36.70;16.60;;;;;;;1.22;88.95;96733.69;2259523;79;21665;-63
2021/01/24 09:32:02;;;;;;;37.48;16.37;;;;;;;1.10;89.14;96742.15;2259191;79;21126;-63
2021/01/24 09:35:05;;;;;;;33.95;14.60;;;;;;;0.98;89.29;96750.95;2259128;79;21318;-64
2021/01/24 09:38:07;;;;;;;34.10;15.55;;;;;;;0.95;89.38;96742.09;2259609;79;21121;-64
2021/01/24 09:41:08;;;;;;;37.40;17.60;;;;;;;0.94;89.43;96740.88;2259168;79;21296;-67
2021/01/24 09:44:09;;;;;;;37.65;17.15;;;;;;;0.95;89.18;96742.09;2259283;79;21272;-64
2021/01/24 09:47:10;;;;;;;37.20;17.15;;;;;;;0.91;89.52;96743.17;2259482;79;21146;-65
2021/01/24 09:50:11;;;;;;;35.48;14.83;;;;;;;0.84;89.43;96756.04;2259525;79;21161;-63
2021/01/24 09:53:13;;;;;;;36.38;15.35;;;;;;;0.80;89.89;96746.80;2259425;79;21674;-64
2021/01/24 09:56:14;;;;;;;43.23;17.75;;;;;;;0.75;89.71;96739.75;2259142;79;21296;-66
2021/01/24 09:59:15;;;;;;;38.80;17.82;;;;;;;0.78;89.45;96746.88;2259574;79;21261;-69
2021/01/24 10:02:16;;;;;;;39.67;18.67;;;;;;;0.86;89.51;96739.56;2259484;79;21272;-65
2021/01/24 10:05:18;;;;;;;42.65;19.90;;;;;;;0.96;89.31;96729.56;2259372;79;21296;-65
2021/01/24 10:08:19;;;;;;;46.33;20.25;;;;;;;1.07;88.99;96730.70;2259568;79;21162;-69
2021/01/24 10:11:21;;;;;;;42.40;20.08;;;;;;;1.11;88.85;96738.66;2227101;79;21265;-64
2021/01/24 10:14:23;;;;;;;41.73;18.35;;;;;;;1.10;88.70;96745.55;2259109;79;21265;-65
2021/01/24 10:17:24;;;;;;;38.17;17.98;;;;;;;1.05;88.92;96748.87;2259101;79;21091;-65
2021/01/24 10:20:25;;;;;;;35.95;16.02;;;;;;;1.00;89.01;96742.64;2259333;79;21253;-64
2021/01/24 10:23:26;;;;;;;36.25;16.37;;;;;;;0.97;89.06;96736.37;2259598;79;21150;-64
2021/01/24 10:26:27;;;;;;;34.20;15.95;;;;;;;0.98;89.20;96745.78;2259609;79;21142;-67
2021/01/24 10:29:29;;;;;;;34.53;16.45;;;;;;;0.99;88.92;96742.30;2259163;79;21597;-66
2021/01/24 10:32:30;;;;;;;34.88;14.43;;;;;;;1.02;88.91;96742.56;2259177;79;21114;-65
2021/01/24 10:35:31;;;;;;;31.93;13.70;;;;;;;1.14;88.85;96744.94;2259195;79;21289;-66
2021/01/24 10:38:32;;;;;;;33.28;15.10;;;;;;;1.20;89.05;96739.42;2259455;79;21162;-65
2021/01/24 10:41:34;;;;;;;35.25;15.90;;;;;;;1.32;89.10;96737.44;2259111;79;21249;-66
2021/01/24 10:44:35;;;;;;;33.83;13.72;;;;;;;1.46;88.46;96736.63;2259324;79;21268;-68
2021/01/24 10:47:36;;;;;;;32.30;14.78;;;;;;;1.52;87.63;96738.88;2259614;79;21130;-64
2021/01/24 10:50:37;;;;;;;39.20;17.23;;;;;;;1.51;87.50;96746.72;2259608;79;21127;-65
2021/01/24 10:53:38;;;;;;;42.38;17.95;;;;;;;1.43;88.14;96756.19;2259062;79;21295;-64
2021/01/24 10:56:39;;;;;;;35.70;15.55;;;;;;;1.37;88.16;96752.67;2265618;79;21281;-65
2021/01/24 10:59:41;;;;;;;35.35;14.85;;;;;;;1.31;88.26;96754.32;2266482;79;21264;-64
2021/01/24 11:02:42;;;;;;;37.48;15.13;;;;;;;1.26;88.46;96758.43;2266216;79;21248;-65
2021/01/24 11:05:43;;;;;;;34.40;15.20;;;;;;;1.23;88.47;96754.73;2266202;79;21153;-67
2021/01/24 11:08:44;;;;;;;34.60;14.03;;;;;;;1.30;88.49;96759.11;2236441;79;21712;-63
2021/01/24 11:11:45;;;;;;;31.27;12.60;;;;;;;1.35;88.49;96761.80;2266473;79;21692;-63
2021/01/24 11:14:46;;;;;;;30.60;12.75;;;;;;;1.31;88.04;96764.18;2266591;79;21146;-64
2021/01/24 11:17:48;;;;;;;34.65;14.00;;;;;;;1.26;88.11;96770.52;2266189;79;21153;-63
2021/01/24 11:20:49;;;;;;;33.80;13.22;;;;;;;1.23;88.50;96769.41;2266516;79;21277;-64
2021/01/24 11:23:50;;;;;;;41.02;16.50;;;;;;;1.23;88.61;96774.11;2266742;79;21272;-63
2021/01/24 11:26:51;;;;;;;32.20;14.18;;;;;;;1.25;88.86;96780.03;2266206;79;21264;-64
2021/01/24 11:29:52;;;;;;;31.07;13.58;;;;;;;1.31;88.40;96776.28;2266466;79;21249;-64
2021/01/24 11:32:54;;;;;;;31.15;12.73;;;;;;;1.33;88.63;96776.54;2266188;79;21562;-64
2021/01/24 11:35:55;;;;;;;28.50;11.38;;;;;;;1.34;87.73;96782.09;2266533;79;21308;-63
2021/01/24 11:38:56;;;;;;;29.18;11.43;;;;;;;1.38;87.29;96787.45;2266287;79;21264;-63
2021/01/24 11:41:58;;;;;;;30.37;11.20;;;;;;;1.34;87.31;96786.43;2266670;78;21285;-65
2021/01/24 11:44:59;;;;;;;32.95;13.72;;;;;;;1.32;87.32;96789.11;2266373;79;21709;-63
2021/01/24 11:48:01;;;;;;;26.93;11.05;;;;;;;1.35;87.50;96785.49;2266889;79;21130;-64
2021/01/24 11:51:03;;;;;;;29.32;11.40;;;;;;;1.40;86.79;96795.59;2266558;79;21268;-64
2021/01/24 11:54:04;;;;;;;27.65;10.48;;;;;;;1.43;86.88;96796.23;2266406;79;21141;-64
2021/01/24 11:57:05;;;;;;;28.05;10.48;;;;;;;1.52;86.90;96801.34;2266488;79;21299;-65
2021/01/24 12:00:07;;;;;;;27.65;10.53;;;;;;;1.53;86.79;96801.72;2266535;79;21260;-64
2021/01/24 12:03:08;;;;;;;29.92;11.18;;;;;;;1.53;86.51;96806.42;2266456;79;21748;-64
2021/01/24 12:06:09;;;;;;;30.08;11.73;;;;;;;1.61;87.22;96794.38;2266508;79;21594;-64
2021/01/24 12:09:11;;;;;;;32.90;13.48;;;;;;;1.71;87.01;96794.20;2266505;79;21685;-63
2021/01/24 12:12:12;;;;;;;34.90;14.18;;;;;;;1.83;87.12;96799.59;2266549;79;21581;-64
2021/01/24 12:15:16;;;;;;;32.28;11.40;;;;;;;1.92;86.78;96803.39;2266450;79;21576;-64
2021/01/24 12:18:17;;;;;;;27.45;9.20;;;;;;;1.88;86.16;96810.48;2266846;79;21265;-65
2021/01/24 12:21:19;;;;;;;26.93;9.40;;;;;;;1.77;84.71;96806.39;2266664;78;21736;-64
2021/01/24 12:24:20;;;;;;;25.95;9.55;;;;;;;1.64;85.71;96818.74;2266628;79;21693;-64
2021/01/24 12:27:21;;;;;;;28.57;11.00;;;;;;;1.50;86.12;96816.93;2266626;78;21256;-64
2021/01/24 12:30:22;;;;;;;34.75;14.03;;;;;;;1.47;86.67;96813.23;2266497;79;21284;-63
2021/01/24 12:33:23;;;;;;;33.45;13.68;;;;;;;1.49;87.19;96823.01;2236413;79;21256;-65
2021/01/24 12:36:24;;;;;;;34.13;13.22;;;;;;;1.48;87.17;96826.53;2266893;79;21153;-65
2021/01/24 12:39:25;;;;;;;29.10;11.03;;;;;;;1.44;86.32;96828.06;2266853;79;21148;-69
2021/01/24 12:42:27;;;;;;;34.75;14.15;;;;;;;1.45;86.37;96834.46;2266871;79;21126;-64
2021/01/24 12:45:28;;;;;;;31.23;12.58;;;;;;;1.49;86.63;96826.88;2266366;79;21751;-64
2021/01/24 12:48:29;;;;;;;29.12;11.60;;;;;;;1.57;87.11;96832.93;2266608;79;21293;-64
2021/01/24 12:51:30;;;;;;;29.87;11.43;;;;;;;1.55;86.27;96832.17;2266475;79;21703;-64
2021/01/24 12:54:31;;;;;;;30.62;12.05;;;;;;;1.56;86.70;96833.37;2266558;79;21162;-65
2021/01/24 12:57:33;;;;;;;30.62;10.65;;;;;;;1.60;86.89;96840.98;2259467;79;21301;-64
2021/01/24 13:00:34;;;;;;;31.45;11.73;;;;;;;1.57;85.64;96851.02;2259243;79;21256;-63
2021/01/24 13:03:35;;;;;;;39.60;14.78;;;;;;;1.47;86.33;96864.09;2259190;79;21551;-63
2021/01/24 13:06:36;;;;;;;36.45;13.95;;;;;;;1.43;87.04;96876.33;2259590;79;21098;-63
2021/01/24 13:09:38;;;;;;;34.10;13.93;;;;;;;1.44;86.08;96879.73;2259577;79;21150;-63
2021/01/24 13:12:39;;;;;;;40.33;16.90;;;;;;;1.37;86.36;96885.72;2259198;79;21257;-65
2021/01/24 13:15:40;;;;;;;42.13;17.52;;;;;;;1.35;86.74;96874.61;2260063;79;21360;-64
2021/01/24 13:18:41;;;;;;;40.78;17.17;;;;;;;1.31;86.63;96897.68;2259123;79;21127;-63
2021/01/24 13:21:42;;;;;;;45.63;20.08;;;;;;;1.20;86.61;96893.91;2259399;79;21712;-63
2021/01/24 13:24:43;;;;;;;49.05;20.32;;;;;;;1.23;86.91;96900.66;2259436;79;21162;-63
2021/01/24 13:27:46;;;;;;;55.88;24.12;;;;;;;1.27;86.89;96897.47;2259640;79;21133;-64
2021/01/24 13:30:47;;;;;;;49.18;22.50;;;;;;;1.27;87.12;96897.47;2259176;79;21134;-64
2021/01/24 13:33:48;;;;;;;51.50;23.67;;;;;;;1.34;87.23;96897.04;2259150;79;21296;-66
2021/01/24 13:36:49;;;;;;;47.30;20.30;;;;;;;1.39;87.07;96901.95;2259240;79;21276;-64
2021/01/24 13:39:50;;;;;;;46.13;20.52;;;;;;;1.42;86.87;96907.41;2227827;79;21288;-65
2021/01/24 13:42:51;;;;;;;42.55;19.23;;;;;;;1.41;86.75;96904.01;2260045;79;21268;-64
2021/01/24 13:45:53;;;;;;;50.73;23.05;;;;;;;1.39;86.45;96904.53;2259163;79;21276;-64
2021/01/24 13:48:57;;;;;;;56.28;24.63;;;;;;;1.38;86.83;96910.17;2259135;79;21126;-64
2021/01/24 13:51:58;;;;;;;48.28;22.37;;;;;;;1.40;86.67;96915.25;2259159;79;21797;-64
2021/01/24 13:55:00;;;;;;;45.83;18.82;;;;;;;1.39;86.72;96905.83;2227196;79;22091;-65
2021/01/24 13:58:01;;;;;;;39.00;15.75;;;;;;;1.33;86.51;96911.34;2227161;79;21305;-66
2021/01/24 14:01:02;;;;;;;43.87;19.82;;;;;;;1.26;86.78;96917.28;2259593;79;21130;-66
2021/01/24 14:04:03;;;;;;;39.23;17.65;;;;;;;1.26;87.10;96918.57;2259092;79;21110;-64
2021/01/24 14:07:04;;;;;;;46.05;20.27;;;;;;;1.38;87.04;96914.52;2259340;79;21273;-66
2021/01/24 14:10:05;;;;;;;45.60;18.50;;;;;;;1.48;86.87;96914.38;2259130;79;21299;-65